Time;durP1;ratioP1;P1;durP2;ratioP2;P2;SDS_P1;SDS_P2;PMS_P1;PMS_P2;Temp;Humidity;BMP_temperature;BMP_pressure;BME280_temperature;BME280_humidity;BME280_pressure;Samples;Min_cycle;Max_cycle;Signal;HPM_P1;HPM_P2
2021/04/29 00:01:07;;;;;;;18.43;8.37;;;;;;;11.38;100.00;95119.56;4946374;28;20446;-72
2021/04/29 00:03:34;;;;;;;12.80;8.53;;;;;;;11.38;100.00;95115.19;4951395;28;20462;-69
2021/04/29 00:06:02;;;;;;;10.33;6.97;;;;;;;11.47;100.00;95116.13;4950371;28;20478;-73
2021/04/29 00:08:31;;;;;;;12.70;7.17;;;;;;;11.47;100.00;95114.38;4940795;28;20450;-71
2021/04/29 00:10:58;;;;;;;11.07;6.03;;;;;;;11.52;100.00;95122.59;4940499;28;20442;-71
2021/04/29 00:13:25;;;;;;;12.90;6.50;;;;;;;11.55;100.00;95114.50;4951449;28;20446;-70
2021/04/29 00:15:53;;;;;;;11.30;6.60;;;;;;;11.62;100.00;95122.66;4944231;28;20823;-73
2021/04/29 00:18:21;;;;;;;9.57;6.17;;;;;;;11.61;100.00;95116.59;4945055;28;20449;-72
2021/04/29 00:20:48;;;;;;;8.07;5.00;;;;;;;11.64;100.00;95116.31;4947399;28;20551;-72
2021/04/29 00:23:15;;;;;;;8.40;5.37;;;;;;;11.65;100.00;95125.78;4946721;28;21229;-71
2021/04/29 00:25:42;;;;;;;15.00;5.40;;;;;;;11.64;100.00;95121.53;4947438;28;20488;-70
2021/04/29 00:28:08;;;;;;;6.80;5.00;;;;;;;11.53;100.00;95113.81;4936604;28;20835;-70
2021/04/29 00:30:35;;;;;;;8.53;4.90;;;;;;;11.72;100.00;95137.28;4944571;28;20979;-73
2021/04/29 00:33:03;;;;;;;7.03;4.93;;;;;;;11.77;100.00;95153.34;4953095;28;20423;-71
2021/04/29 00:35:30;;;;;;;9.83;5.43;;;;;;;11.78;100.00;95144.56;4950821;28;21015;-71
2021/04/29 00:37:57;;;;;;;12.97;6.33;;;;;;;11.86;100.00;95147.31;4946785;28;20985;-72
2021/04/29 00:40:24;;;;;;;9.97;5.57;;;;;;;11.76;100.00;95154.31;4939374;28;20851;-70
2021/04/29 00:42:51;;;;;;;12.00;5.40;;;;;;;11.72;100.00;95149.53;4945007;28;20517;-70
2021/04/29 00:45:18;;;;;;;9.90;6.43;;;;;;;11.75;100.00;95152.69;4941471;28;20462;-71
2021/04/29 00:47:49;;;;;;;17.17;6.50;;;;;;;11.68;100.00;95156.78;4938500;28;20486;-69
2021/04/29 00:50:19;;;;;;;10.57;6.63;;;;;;;11.75;100.00;95157.06;4947390;28;20462;-72
2021/04/29 00:52:46;;;;;;;10.20;7.33;;;;;;;11.83;100.00;95158.03;4936392;28;20537;-71
2021/04/29 00:55:13;;;;;;;10.77;6.80;;;;;;;11.84;100.00;95161.47;4941917;28;21064;-72
2021/04/29 00:57:40;;;;;;;14.30;6.70;;;;;;;11.74;100.00;95156.25;4937977;28;21029;-70
2021/04/29 01:00:10;;;;;;;9.43;5.93;;;;;;;11.86;100.00;95156.94;4944830;28;20780;-69
2021/04/29 01:02:41;;;;;;;9.93;6.40;;;;;;;11.82;100.00;95161.59;4944204;28;20466;-70
2021/04/29 01:05:13;;;;;;;10.50;6.37;;;;;;;11.89;100.00;95175.72;4945660;28;20523;-71
2021/04/29 01:07:45;;;;;;;13.20;5.60;;;;;;;12.02;100.00;95172.84;4946496;28;20445;-72
2021/04/29 01:10:17;;;;;;;10.03;7.17;;;;;;;11.94;100.00;95168.31;4935357;28;20523;-72
2021/04/29 01:12:49;;;;;;;9.17;6.17;;;;;;;11.81;100.00;95175.59;4945323;28;20449;-74
2021/04/29 01:15:17;;;;;;;7.83;5.90;;;;;;;11.82;100.00;95171.19;4946150;28;20582;-71
2021/04/29 01:17:49;;;;;;;11.03;7.30;;;;;;;11.86;100.00;95165.56;4939441;28;20455;-70
2021/04/29 01:20:21;;;;;;;10.67;7.60;;;;;;;11.81;100.00;95170.38;4938224;28;20470;-71
2021/04/29 01:22:55;;;;;;;9.30;7.17;;;;;;;11.86;100.00;95170.78;4944337;28;20970;-71
2021/04/29 01:25:27;;;;;;;10.47;6.50;;;;;;;11.91;100.00;95165.16;4944711;28;20967;-71
2021/04/29 01:27:55;;;;;;;9.27;6.03;;;;;;;11.91;100.00;95165.97;4942070;28;20937;-71
2021/04/29 01:30:22;;;;;;;12.47;7.30;;;;;;;11.99;100.00;95162.69;4937858;28;20957;-71
2021/04/29 01:32:49;;;;;;;8.37;6.77;;;;;;;12.16;100.00;95170.59;4938507;28;20826;-70
2021/04/29 01:35:17;;;;;;;8.70;6.60;;;;;;;12.30;100.00;95164.97;4948970;28;21020;-71
2021/04/29 01:37:44;;;;;;;9.40;7.23;;;;;;;12.35;100.00;95165.38;4945037;28;20771;-71
2021/04/29 01:40:12;;;;;;;9.67;6.83;;;;;;;12.35;100.00;95164.53;4943689;28;20944;-72
2021/04/29 01:42:40;;;;;;;9.83;6.67;;;;;;;12.36;100.00;95168.81;4942538;28;20454;-70
2021/04/29 01:45:10;;;;;;;9.57;6.90;;;;;;;12.35;100.00;95167.16;4936796;28;20462;-69
2021/04/29 01:47:37;;;;;;;8.97;6.20;;;;;;;12.46;100.00;95173.06;4939936;28;20430;-71
2021/04/29 01:50:08;;;;;;;11.87;6.80;;;;;;;12.39;100.00;95182.41;4941896;28;20493;-70
2021/04/29 01:52:35;;;;;;;9.67;6.50;;;;;;;12.38;100.00;95180.72;4941182;28;20905;-71
2021/04/29 01:55:03;;;;;;;9.10;6.67;;;;;;;12.35;100.00;95174.97;4943223;28;20480;-71
2021/04/29 01:57:31;;;;;;;8.40;6.10;;;;;;;12.36;100.00;95190.50;4944012;28;20442;-71
2021/04/29 01:59:58;;;;;;;7.40;5.90;;;;;;;12.32;100.00;95186.53;4950071;28;21432;-71
2021/04/29 02:02:26;;;;;;;8.47;6.03;;;;;;;12.37;100.00;95189.53;4949706;28;20478;-71
2021/04/29 02:04:53;;;;;;;8.43;5.80;;;;;;;12.35;100.00;95194.06;4949044;28;20571;-71
2021/04/29 02:07:20;;;;;;;9.90;6.33;;;;;;;12.38;100.00;95201.59;4943901;28;20923;-71
2021/04/29 02:09:47;;;;;;;7.37;6.50;;;;;;;12.36;100.00;95207.97;4947474;28;20497;-71
2021/04/29 02:12:15;;;;;;;9.50;6.30;;;;;;;12.27;100.00;95207.00;4944695;28;20916;-73
2021/04/29 02:14:47;;;;;;;8.23;5.70;;;;;;;12.22;100.00;95211.78;4944694;28;20830;-73
2021/04/29 02:17:24;;;;;;;9.20;5.87;;;;;;;12.18;100.00;95214.81;4955737;28;20889;-74
2021/04/29 02:19:56;;;;;;;7.03;5.77;;;;;;;12.08;100.00;95225.25;4935295;28;20485;-73
2021/04/29 02:22:25;;;;;;;9.83;6.30;;;;;;;12.12;100.00;95233.63;4946093;28;20438;-71
2021/04/29 02:24:54;;;;;;;3.30;2.40;;;;;;;11.69;100.00;95234.03;4942726;28;20532;-70
2021/04/29 02:27:21;;;;;;;5.50;3.70;;;;;;;11.47;100.00;95239.44;4947044;28;20447;-72
2021/04/29 02:29:49;;;;;;;4.90;3.30;;;;;;;11.36;100.00;95246.53;4946742;28;20986;-72
2021/04/29 02:32:17;;;;;;;5.80;3.07;;;;;;;11.27;100.00;95253.34;4944135;28;20897;-72
2021/04/29 02:34:45;;;;;;;3.50;2.43;;;;;;;11.21;100.00;95258.28;4944391;28;20494;-71
2021/04/29 02:37:14;;;;;;;9.43;2.90;;;;;;;11.19;100.00;95255.78;4949178;28;21020;-71
2021/04/29 02:39:42;;;;;;;3.30;2.57;;;;;;;11.22;100.00;95270.34;4942306;28;20450;-73
2021/04/29 02:42:12;;;;;;;5.17;2.77;;;;;;;11.26;100.00;95267.34;4947627;28;20466;-71
2021/04/29 02:44:39;;;;;;;6.00;2.90;;;;;;;11.36;100.00;95280.41;4937411;28;20517;-71
2021/04/29 02:47:06;;;;;;;3.27;2.20;;;;;;;11.38;100.00;95265.47;4947091;28;20784;-71
2021/04/29 02:49:33;;;;;;;2.67;1.13;;;;;;;11.43;100.00;95266.69;4942329;28;20870;-72
2021/04/29 02:52:01;;;;;;;1.40;1.20;;;;;;;11.46;100.00;95276.88;4942962;28;20450;-70
2021/04/29 02:54:31;;;;;;;2.23;1.50;;;;;;;11.51;100.00;95277.31;4940555;28;20521;-71
2021/04/29 02:56:57;;;;;;;2.50;1.30;;;;;;;11.40;100.00;95280.00;4940555;28;20489;-70
2021/04/29 02:59:24;;;;;;;2.50;1.03;;;;;;;11.40;100.00;95293.03;4941817;28;20552;-73
2021/04/29 03:01:51;;;;;;;0.90;0.60;;;;;;;11.22;100.00;95296.38;4935617;28;20481;-71
2021/04/29 03:04:18;;;;;;;1.27;0.73;;;;;;;11.13;100.00;95295.38;4950422;28;20489;-72
2021/04/29 03:06:45;;;;;;;1.07;0.60;;;;;;;10.98;100.00;95304.47;4920780;28;20914;-72
2021/04/29 03:09:12;;;;;;;0.80;0.60;;;;;;;10.93;100.00;95309.28;4946238;28;20485;-71
2021/04/29 03:11:42;;;;;;;0.93;0.60;;;;;;;10.90;100.00;95316.50;4950234;28;20481;-73
2021/04/29 03:14:08;;;;;;;3.03;0.70;;;;;;;10.74;100.00;95319.56;4941563;28;20477;-73
2021/04/29 03:16:35;;;;;;;0.83;0.60;;;;;;;10.70;100.00;95314.72;4946798;28;20985;-72
2021/04/29 03:19:03;;;;;;;1.17;0.80;;;;;;;10.69;100.00;95313.91;4944568;28;20878;-71
2021/04/29 03:21:30;;;;;;;1.20;0.80;;;;;;;10.68;100.00;95312.25;4947220;28;21035;-74
2021/04/29 03:23:57;;;;;;;1.20;0.90;;;;;;;10.62;100.00;95315.34;4924495;28;20800;-71
2021/04/29 03:26:24;;;;;;;2.40;0.83;;;;;;;10.52;99.97;95309.28;4929712;28;20839;-71
2021/04/29 03:28:52;;;;;;;1.00;0.80;;;;;;;10.47;99.49;95314.00;4947960;28;20454;-73
2021/04/29 03:31:19;;;;;;;1.20;0.80;;;;;;;10.39;99.71;95315.63;4950749;28;20473;-73
2021/04/29 03:33:46;;;;;;;1.10;0.70;;;;;;;10.32;100.00;95317.88;4950668;28;20524;-72
2021/04/29 03:36:13;;;;;;;1.47;0.87;;;;;;;10.26;100.00;95315.75;4941226;28;21174;-72
2021/04/29 03:38:41;;;;;;;2.23;1.17;;;;;;;10.20;100.00;95321.47;4941689;28;20967;-71
2021/04/29 03:41:08;;;;;;;1.00;0.73;;;;;;;10.16;100.00;95327.88;4941768;28;20905;-73
2021/04/29 03:43:34;;;;;;;1.57;1.00;;;;;;;10.09;100.00;95326.72;4950272;28;20551;-73
2021/04/29 03:46:02;;;;;;;1.90;1.00;;;;;;;10.11;100.00;95337.81;4952628;28;20440;-72
2021/04/29 03:48:30;;;;;;;1.67;0.87;;;;;;;10.04;100.00;95336.63;4949844;28;20508;-73
2021/04/29 03:50:57;;;;;;;2.03;1.20;;;;;;;10.07;100.00;95344.22;4949906;28;20441;-71
2021/04/29 03:53:24;;;;;;;2.03;1.00;;;;;;;9.94;100.00;95343.50;4947866;28;20518;-73
2021/04/29 03:55:51;;;;;;;1.53;0.90;;;;;;;9.98;100.00;95338.88;4949016;28;20534;-70
2021/04/29 03:58:17;;;;;;;3.30;1.20;;;;;;;9.97;100.00;95345.88;4943072;28;20930;-71
2021/04/29 04:00:44;;;;;;;2.37;0.90;;;;;;;9.94;100.00;95340.91;4946276;28;20827;-71
2021/04/29 04:03:12;;;;;;;3.07;1.10;;;;;;;9.78;100.00;95332.66;4947512;28;20540;-71
2021/04/29 04:05:39;;;;;;;1.13;0.90;;;;;;;9.84;100.00;95345.19;4949237;28;20453;-73
2021/04/29 04:08:06;;;;;;;1.17;0.90;;;;;;;9.85;100.00;95344.22;4947470;28;20441;-74
2021/04/29 04:10:33;;;;;;;3.17;1.23;;;;;;;9.82;100.00;95346.25;4928841;28;20949;-72
2021/04/29 04:13:00;;;;;;;2.03;1.30;;;;;;;9.83;100.00;95343.53;4949207;28;20441;-72
2021/04/29 04:15:27;;;;;;;2.20;1.10;;;;;;;9.71;100.00;95349.69;4939511;28;20478;-70
2021/04/29 04:17:54;;;;;;;1.10;0.90;;;;;;;9.73;100.00;95352.19;4947216;28;20525;-70
2021/04/29 04:20:23;;;;;;;2.73;1.40;;;;;;;9.71;100.00;95348.84;4930531;28;20523;-70
2021/04/29 04:22:50;;;;;;;2.00;1.30;;;;;;;9.69;100.00;95351.59;4949161;28;20781;-72
2021/04/29 04:25:17;;;;;;;2.00;1.40;;;;;;;9.77;100.00;95356.16;4952600;28;20759;-73
2021/04/29 04:27:44;;;;;;;1.60;1.13;;;;;;;9.77;99.99;95359.59;4951017;28;20939;-72
2021/04/29 04:30:12;;;;;;;4.83;1.40;;;;;;;9.79;99.59;95357.72;4944909;28;21051;-73
2021/04/29 04:32:46;;;;;;;1.60;1.20;;;;;;;9.78;99.38;95363.84;4945630;28;20732;-72
2021/04/29 04:35:14;;;;;;;2.50;2.27;;;;;;;9.81;99.47;95365.38;4946447;28;20481;-70
2021/04/29 04:37:43;;;;;;;4.63;2.80;;;;;;;9.83;99.13;95368.69;4944929;28;20445;-71
2021/04/29 04:40:12;;;;;;;8.00;3.37;;;;;;;9.80;99.02;95368.94;4954260;28;20552;-70
2021/04/29 04:42:40;;;;;;;6.90;2.53;;;;;;;9.79;98.71;95368.09;4942133;28;20929;-72
2021/04/29 04:45:08;;;;;;;2.30;1.70;;;;;;;9.86;98.86;95368.44;4944668;28;20812;-72
2021/04/29 04:47:36;;;;;;;1.83;1.50;;;;;;;9.85;98.40;95372.81;4940330;28;20901;-73
2021/04/29 04:50:10;;;;;;;2.57;1.97;;;;;;;9.84;98.22;95381.56;4947107;28;20860;-71
2021/04/29 04:52:37;;;;;;;1.67;1.30;;;;;;;9.94;98.34;95382.47;4947120;28;20446;-71
2021/04/29 04:55:07;;;;;;;1.90;1.20;;;;;;;10.02;97.94;95384.50;4945700;28;21737;-71
2021/04/29 04:57:34;;;;;;;2.90;1.80;;;;;;;10.05;97.41;95385.13;4943125;28;20509;-73
2021/04/29 05:00:06;;;;;;;1.47;1.37;;;;;;;10.17;97.08;95384.13;4939084;28;20476;-71
2021/04/29 05:02:37;;;;;;;6.43;1.60;;;;;;;10.25;95.80;95389.53;4935631;28;21185;-71
2021/04/29 05:05:05;;;;;;;3.43;1.80;;;;;;;10.24;95.31;95389.66;4939182;28;20478;-71
2021/04/29 05:07:34;;;;;;;2.00;1.37;;;;;;;10.11;95.10;95395.00;4943336;28;20627;-73
2021/04/29 05:10:01;;;;;;;4.27;1.90;;;;;;;10.10;95.10;95395.94;4940091;28;20957;-70
2021/04/29 05:12:30;;;;;;;4.80;1.90;;;;;;;10.16;95.00;95400.66;4943799;28;20968;-71
2021/04/29 05:14:57;;;;;;;2.57;2.00;;;;;;;10.13;94.87;95393.13;4947091;28;20460;-72
2021/04/29 05:17:24;;;;;;;3.57;1.50;;;;;;;10.16;94.61;95387.66;4942745;28;20636;-71
2021/04/29 05:19:51;;;;;;;7.13;2.23;;;;;;;10.28;94.27;95406.66;4941686;28;20985;-72
2021/04/29 05:22:18;;;;;;;5.27;2.60;;;;;;;10.28;93.74;95402.31;4939625;28;20453;-71
2021/04/29 05:24:45;;;;;;;6.00;3.30;;;;;;;10.31;93.77;95402.03;4930319;28;20489;-72
2021/04/29 05:27:12;;;;;;;5.50;3.10;;;;;;;10.31;93.72;95401.25;4938277;28;20438;-73
2021/04/29 05:29:48;;;;;;;11.60;2.40;;;;;;;10.42;93.20;95393.38;4949222;28;21003;-72
2021/04/29 05:32:15;;;;;;;4.47;2.40;;;;;;;10.30;93.23;95389.16;4937526;28;20835;-72
2021/04/29 05:34:42;;;;;;;4.73;2.03;;;;;;;10.38;92.61;95395.41;4945237;28;20458;-70
2021/04/29 05:37:09;;;;;;;7.97;3.10;;;;;;;10.36;92.42;95397.31;4913903;28;20467;-70
2021/04/29 05:39:36;;;;;;;4.90;2.90;;;;;;;10.30;91.97;95395.19;4937912;28;20862;-69
2021/04/29 05:42:04;;;;;;;10.57;6.73;;;;;;;10.30;92.42;95390.00;4936879;28;20928;-71
2021/04/29 05:44:30;;;;;;;3.80;3.13;;;;;;;10.47;92.36;95399.06;4943689;28;20473;-71
2021/04/29 05:46:58;;;;;;;6.83;3.00;;;;;;;10.60;92.17;95389.31;4942629;28;20933;-70
2021/04/29 05:49:26;;;;;;;12.40;3.20;;;;;;;10.62;90.78;95396.00;4938791;28;20955;-70
2021/04/29 05:51:54;;;;;;;4.50;2.93;;;;;;;10.51;91.65;95400.44;4948781;28;20456;-70
2021/04/29 05:54:21;;;;;;;6.53;3.80;;;;;;;10.48;91.53;95401.50;4946758;28;20529;-70
2021/04/29 05:56:47;;;;;;;5.00;2.97;;;;;;;10.66;91.39;95404.41;4941326;28;20462;-71
2021/04/29 05:59:14;;;;;;;7.30;3.53;;;;;;;10.76;90.72;95407.94;4944159;28;20957;-70
2021/04/29 06:01:41;;;;;;;4.30;3.30;;;;;;;10.85;88.99;95410.59;4942161;28;20478;-71
2021/04/29 06:04:11;;;;;;;10.47;3.73;;;;;;;10.77;89.21;95415.59;4938229;28;21012;-71
2021/04/29 06:06:38;;;;;;;4.83;3.23;;;;;;;10.65;88.76;95419.22;4948092;28;20431;-69
2021/04/29 06:09:05;;;;;;;13.30;2.60;;;;;;;10.58;89.09;95420.66;4948718;28;20474;-70
2021/04/29 06:11:33;;;;;;;6.73;3.13;;;;;;;10.42;89.71;95429.81;4938023;28;20924;-72
2021/04/29 06:14:00;;;;;;;7.53;3.17;;;;;;;10.39;89.68;95425.66;4937109;28;20540;-70
2021/04/29 06:16:27;;;;;;;4.13;2.83;;;;;;;10.32;90.31;95419.28;4949230;28;20846;-70
2021/04/29 06:18:54;;;;;;;3.80;3.10;;;;;;;10.37;90.96;95427.56;4946206;28;20579;-70
2021/04/29 06:21:22;;;;;;;5.40;3.10;;;;;;;10.40;90.33;95422.13;4942472;28;20875;-71
2021/04/29 06:23:49;;;;;;;6.50;2.90;;;;;;;10.39;89.81;95423.06;4938984;28;20529;-72
2021/04/29 06:26:16;;;;;;;5.90;3.20;;;;;;;10.29;91.26;95416.97;4948585;28;20448;-69
2021/04/29 06:28:43;;;;;;;7.17;3.30;;;;;;;10.37;91.46;95427.56;4940938;28;20449;-71
2021/04/29 06:31:09;;;;;;;6.90;3.63;;;;;;;10.32;91.47;95424.50;4949486;28;20454;-73
2021/04/29 06:33:39;;;;;;;8.60;4.47;;;;;;;10.39;91.45;95419.66;4949490;28;20805;-69
2021/04/29 06:36:07;;;;;;;5.43;2.83;;;;;;;10.46;91.07;95423.41;4939908;28;20941;-70
2021/04/29 06:38:36;;;;;;;4.53;3.13;;;;;;;10.48;90.34;95440.53;4942989;28;20532;-70
2021/04/29 06:41:04;;;;;;;6.77;3.00;;;;;;;10.56;89.59;95432.97;4938527;28;20462;-71
2021/04/29 06:43:31;;;;;;;6.40;3.10;;;;;;;10.59;89.62;95432.72;4946925;28;20441;-70
2021/04/29 06:45:58;;;;;;;5.23;2.83;;;;;;;10.57;89.19;95419.00;4945414;28;20445;-70
2021/04/29 06:48:25;;;;;;;5.07;2.43;;;;;;;10.59;89.15;95437.91;4938716;28;20446;-71
2021/04/29 06:50:58;;;;;;;7.40;2.97;;;;;;;10.63;88.97;95438.50;4942900;28;20992;-71
2021/04/29 06:53:25;;;;;;;4.60;3.33;;;;;;;10.70;89.11;95439.66;4943934;28;20822;-69
2021/04/29 06:55:53;;;;;;;5.57;2.80;;;;;;;10.81;87.95;95442.19;4941795;28;20470;-70
2021/04/29 06:58:20;;;;;;;15.67;3.80;;;;;;;10.96;88.25;95447.00;4945638;28;20951;-71
2021/04/29 07:00:47;;;;;;;12.57;3.00;;;;;;;11.23;88.05;95443.88;4949146;28;20965;-73
2021/04/29 07:03:14;;;;;;;6.33;3.20;;;;;;;11.39;86.53;95452.91;4947609;28;20816;-71
2021/04/29 07:05:41;;;;;;;5.10;3.47;;;;;;;11.46;85.82;95454.06;4940746;28;20522;-71
2021/04/29 07:08:09;;;;;;;5.80;3.60;;;;;;;11.38;86.34;95460.84;4942301;28;21136;-71
2021/04/29 07:10:36;;;;;;;8.03;3.27;;;;;;;11.27;87.29;95456.53;4942166;28;20485;-70
2021/04/29 07:13:07;;;;;;;8.40;3.20;;;;;;;11.32;87.31;95456.13;4941715;28;20941;-71
2021/04/29 07:15:34;;;;;;;51.43;24.73;;;;;;;11.35;87.81;95454.09;4940756;28;20459;-68
2021/04/29 07:18:04;;;;;;;8.00;3.20;;;;;;;11.36;86.58;95452.34;4938426;28;20509;-70
2021/04/29 07:20:33;;;;;;;5.50;2.90;;;;;;;11.33;86.70;95461.22;4944729;28;20505;-69
2021/04/29 07:23:01;;;;;;;5.80;3.50;;;;;;;11.41;86.41;95458.00;4942173;28;20917;-71
2021/04/29 07:25:28;;;;;;;8.10;3.70;;;;;;;11.50;86.53;95460.66;4934852;28;20458;-72
2021/04/29 07:27:54;;;;;;;5.47;3.60;;;;;;;11.63;86.04;95463.91;4945495;28;20987;-71
2021/04/29 07:30:22;;;;;;;11.50;4.30;;;;;;;11.85;86.26;95463.75;4936922;28;21164;-71
2021/04/29 07:32:49;;;;;;;7.80;2.97;;;;;;;12.37;84.62;95453.09;4939914;28;20996;-68
2021/04/29 07:35:16;;;;;;;7.67;3.80;;;;;;;12.92;81.14;95452.50;4943889;28;21012;-77
2021/04/29 07:37:43;;;;;;;6.97;3.83;;;;;;;13.00;81.33;95450.03;4947222;28;21150;-68
2021/04/29 07:40:11;;;;;;;8.17;4.67;;;;;;;13.18;80.13;95453.59;4936228;28;20966;-70
2021/04/29 07:42:38;;;;;;;7.40;4.40;;;;;;;13.44;78.00;95452.06;4940567;28;20459;-70
2021/04/29 07:45:06;;;;;;;8.40;4.10;;;;;;;13.40;77.32;95453.31;4937357;28;20805;-69
2021/04/29 07:47:34;;;;;;;6.23;3.57;;;;;;;13.06;77.94;95454.72;4941866;28;20981;-70
2021/04/29 07:50:01;;;;;;;7.50;3.90;;;;;;;12.92;79.85;95452.50;4948794;28;20992;-72
2021/04/29 07:52:28;;;;;;;14.20;4.40;;;;;;;12.88;78.51;95462.38;4946322;28;20771;-69
2021/04/29 07:54:55;;;;;;;8.50;5.47;;;;;;;12.97;78.99;95447.72;4928909;28;20472;-72
2021/04/29 07:57:23;;;;;;;8.80;4.80;;;;;;;13.26;78.19;95461.56;4945839;28;20791;-71
2021/04/29 07:59:50;;;;;;;8.43;4.40;;;;;;;13.40;77.55;95458.53;4946637;28;20477;-70
2021/04/29 08:02:17;;;;;;;8.63;4.67;;;;;;;13.59;75.85;95448.88;4938093;28;20473;-75
2021/04/29 08:04:46;;;;;;;11.77;4.13;;;;;;;13.70;76.93;95451.31;4940319;28;20556;-71
2021/04/29 08:07:13;;;;;;;11.37;5.33;;;;;;;13.58;75.24;95436.75;4941385;28;20466;-72
2021/04/29 08:09:40;;;;;;;10.47;6.33;;;;;;;13.52;74.36;95452.19;4948153;28;20674;-71
2021/04/29 08:12:08;;;;;;;8.07;6.00;;;;;;;13.46;75.87;95455.38;4925165;28;20766;-71
2021/04/29 08:14:35;;;;;;;9.70;5.27;;;;;;;13.59;75.50;95459.34;4944456;28;20466;-69
2021/04/29 08:17:02;;;;;;;11.00;5.30;;;;;;;13.57;74.71;95453.41;4946349;28;20533;-70
2021/04/29 08:19:30;;;;;;;27.23;15.73;;;;;;;13.42;75.14;95449.59;4948608;28;20793;-69
2021/04/29 08:21:58;;;;;;;15.40;5.10;;;;;;;13.23;76.10;95456.63;4942414;28;20835;-70
2021/04/29 08:24:25;;;;;;;8.60;4.97;;;;;;;13.07;77.63;95462.41;4939714;28;20482;-70
2021/04/29 08:26:52;;;;;;;12.80;6.13;;;;;;;12.98;78.76;95467.66;4944129;28;20845;-70
2021/04/29 08:29:19;;;;;;;7.57;5.67;;;;;;;12.96;79.61;95462.56;4928942;28;20478;-75
2021/04/29 08:31:46;;;;;;;9.87;5.60;;;;;;;12.95;79.92;95470.53;4921776;28;20516;-70
2021/04/29 08:34:12;;;;;;;14.13;6.77;;;;;;;12.89;80.36;95473.63;4938096;28;21055;-71
2021/04/29 08:36:39;;;;;;;12.97;6.10;;;;;;;13.00;80.94;95476.16;4940043;28;20525;-71
2021/04/29 08:39:07;;;;;;;11.37;6.23;;;;;;;12.99;82.04;95482.34;4949956;28;20465;-75
2021/04/29 08:41:35;;;;;;;10.00;6.03;;;;;;;12.83;82.72;95472.41;4945831;28;20446;-72
2021/04/29 08:44:02;;;;;;;13.60;6.70;;;;;;;12.73;82.21;95470.75;4945748;28;20459;-73
2021/04/29 08:46:29;;;;;;;10.47;7.00;;;;;;;12.70;81.57;95484.88;4944569;28;20439;-74
2021/04/29 08:48:57;;;;;;;11.87;6.97;;;;;;;12.63;82.48;95482.97;4918415;28;20491;-71
2021/04/29 08:51:25;;;;;;;9.80;6.40;;;;;;;12.61;84.00;95489.28;4927010;28;20451;-71
2021/04/29 08:53:54;;;;;;;17.10;6.63;;;;;;;12.57;83.12;95496.56;4945993;28;20869;-73
2021/04/29 08:56:25;;;;;;;19.47;8.90;;;;;;;12.52;85.42;95496.13;4944960;28;20458;-71
2021/04/29 08:58:53;;;;;;;13.83;8.40;;;;;;;12.53;87.01;95505.63;4948231;28;21019;-72
2021/04/29 09:01:20;;;;;;;14.73;8.77;;;;;;;12.36;88.41;95501.00;4947171;28;20936;-71
2021/04/29 09:03:48;;;;;;;17.70;9.87;;;;;;;12.26;90.13;95512.38;4920421;28;20467;-72
2021/04/29 09:06:15;;;;;;;18.27;8.67;;;;;;;12.12;90.47;95513.56;4939613;28;20450;-75
2021/04/29 09:08:45;;;;;;;22.40;11.33;;;;;;;12.18;91.55;95507.84;4943629;28;21002;-71
2021/04/29 09:11:14;;;;;;;23.43;11.00;;;;;;;12.33;91.47;95506.50;4948542;28;20450;-70
2021/04/29 09:13:54;;;;;;;14.97;9.20;;;;;;;12.52;92.11;95497.91;4944094;28;20504;-70
2021/04/29 09:16:21;;;;;;;11.00;7.57;;;;;;;12.67;90.26;95502.59;4940317;28;20524;-70
2021/04/29 09:18:49;;;;;;;16.20;9.80;;;;;;;12.68;89.16;95501.66;4941394;28;20675;-72
2021/04/29 09:21:17;;;;;;;22.93;9.33;;;;;;;13.04;89.78;95501.03;4947806;28;20900;-73
2021/04/29 09:23:46;;;;;;;10.17;6.90;;;;;;;13.28;83.58;95501.47;4941110;28;20474;-74
2021/04/29 09:26:15;;;;;;;15.03;7.73;;;;;;;13.59;82.27;95497.72;4949193;28;20448;-74
2021/04/29 09:28:44;;;;;;;14.70;7.17;;;;;;;13.71;82.51;95494.81;4942383;28;20790;-70
2021/04/29 09:31:13;;;;;;;12.27;6.60;;;;;;;13.88;79.50;95480.19;4947887;28;20823;-71
2021/04/29 09:33:45;;;;;;;17.43;7.70;;;;;;;14.08;77.83;95482.59;4940278;28;21125;-69
2021/04/29 09:36:23;;;;;;;11.90;6.90;;;;;;;14.42;81.29;95490.75;4948530;28;20466;-73
2021/04/29 09:38:55;;;;;;;13.40;7.47;;;;;;;14.52;79.14;95486.31;4942872;28;21012;-70
2021/04/29 09:41:23;;;;;;;11.80;6.53;;;;;;;14.70;76.10;95489.78;4944079;28;21089;-72
2021/04/29 09:43:56;;;;;;;13.03;7.10;;;;;;;14.84;75.91;95486.66;4943523;28;21044;-72
2021/04/29 09:46:24;;;;;;;16.83;6.97;;;;;;;14.99;74.44;95479.94;4943046;28;20894;-73
2021/04/29 09:48:52;;;;;;;13.63;7.07;;;;;;;14.96;74.34;95469.75;4937178;28;20798;-72
2021/04/29 09:51:19;;;;;;;11.83;6.03;;;;;;;14.94;73.42;95482.16;4936455;28;20897;-71
2021/04/29 09:53:48;;;;;;;8.30;5.50;;;;;;;14.86;73.10;95484.69;4947339;28;21024;-73
2021/04/29 09:56:19;;;;;;;10.63;6.50;;;;;;;14.85;71.94;95478.66;4935903;28;20462;-75
2021/04/29 09:58:48;;;;;;;14.63;5.87;;;;;;;14.75;71.81;95477.06;4947530;28;20695;-71
2021/04/29 10:01:16;;;;;;;18.33;6.67;;;;;;;15.02;74.58;95461.31;4942290;28;20783;-74
2021/04/29 10:03:44;;;;;;;10.60;6.23;;;;;;;15.31;67.91;95467.13;4938421;28;20466;-76
2021/04/29 10:06:15;;;;;;;12.13;6.10;;;;;;;15.29;66.89;95461.19;4942305;28;20473;-74
2021/04/29 10:08:45;;;;;;;9.23;5.07;;;;;;;15.90;66.62;95456.78;4942743;28;20803;-73
2021/04/29 10:11:13;;;;;;;12.67;6.37;;;;;;;16.19;66.27;95468.59;4943725;28;21153;-74
2021/04/29 10:13:44;;;;;;;7.77;4.43;;;;;;;16.05;64.97;95468.34;4937893;28;21049;-73
2021/04/29 10:16:11;;;;;;;8.70;5.17;;;;;;;15.77;64.60;95464.22;4940910;28;20776;-76
2021/04/29 10:18:40;;;;;;;8.97;5.50;;;;;;;15.37;64.51;95461.28;4941636;28;21060;-73
2021/04/29 10:21:07;;;;;;;12.90;6.37;;;;;;;15.36;66.56;95483.25;4942448;28;20552;-73
2021/04/29 10:23:34;;;;;;;21.77;7.93;;;;;;;15.34;66.41;95478.19;4934291;28;20973;-73
2021/04/29 10:26:01;;;;;;;15.07;6.47;;;;;;;15.45;66.50;95484.97;4938575;28;20513;-74
2021/04/29 10:28:32;;;;;;;9.50;4.83;;;;;;;15.35;64.00;95484.22;4942102;28;20458;-75
2021/04/29 10:31:02;;;;;;;10.10;4.80;;;;;;;15.18;64.44;95483.22;4949395;28;20430;-73
2021/04/29 10:33:36;;;;;;;8.17;4.90;;;;;;;15.16;64.42;95487.81;4942722;28;20442;-75
2021/04/29 10:36:12;;;;;;;8.80;4.60;;;;;;;15.14;64.71;95494.16;4941318;28;20482;-73
2021/04/29 10:38:40;;;;;;;5.30;3.90;;;;;;;15.08;66.40;95511.31;4936566;28;20904;-74
2021/04/29 10:41:18;;;;;;;8.77;5.67;;;;;;;15.02;67.70;95524.19;4948366;28;20435;-71
2021/04/29 10:43:45;;;;;;;9.33;4.70;;;;;;;14.33;67.36;95528.25;4944897;28;20481;-74
2021/04/29 10:46:25;;;;;;;10.70;4.50;;;;;;;13.87;68.18;95530.84;4941637;28;20430;-74
2021/04/29 10:48:53;;;;;;;7.73;4.20;;;;;;;13.57;67.33;95518.78;4945990;28;20941;-74
2021/04/29 10:51:29;;;;;;;6.50;4.70;;;;;;;13.27;69.34;95523.34;4944091;28;20870;-74
2021/04/29 10:54:08;;;;;;;7.33;4.60;;;;;;;13.04;69.96;95516.72;4940558;28;20454;-72
2021/04/29 10:56:39;;;;;;;5.70;3.83;;;;;;;13.05;70.34;95511.38;4946051;28;20493;-73
2021/04/29 10:59:12;;;;;;;4.90;3.50;;;;;;;13.21;69.96;95526.50;4943199;28;21283;-73
2021/04/29 11:01:45;;;;;;;6.97;3.67;;;;;;;13.21;69.45;95535.16;4941345;28;20839;-72
2021/04/29 11:04:19;;;;;;;8.13;3.80;;;;;;;13.35;69.30;95529.53;4939748;28;20470;-73
2021/04/29 11:06:48;;;;;;;10.03;3.47;;;;;;;13.50;69.18;95533.38;4945068;28;20442;-73
2021/04/29 11:09:20;;;;;;;8.60;3.40;;;;;;;13.94;68.21;95540.59;4947071;28;20477;-73
2021/04/29 11:11:59;;;;;;;5.93;4.37;;;;;;;14.35;66.63;95539.41;4920626;28;20442;-74
2021/04/29 11:14:40;;;;;;;9.30;3.47;;;;;;;14.12;64.78;95536.31;4942945;28;21165;-74
2021/04/29 11:17:18;;;;;;;9.57;3.80;;;;;;;13.68;63.86;95528.25;4947315;28;21123;-74
2021/04/29 11:19:48;;;;;;;8.90;4.20;;;;;;;13.55;64.77;95540.78;4942689;28;20490;-72
2021/04/29 11:22:25;;;;;;;7.10;3.00;;;;;;;13.47;65.02;95548.50;4948298;28;20454;-74
2021/04/29 11:24:52;;;;;;;5.87;3.70;;;;;;;13.20;64.48;95543.97;4959267;28;20457;-73
2021/04/29 11:27:21;;;;;;;3.20;2.20;;;;;;;13.01;65.23;95537.91;4951013;28;21132;-74
2021/04/29 11:29:49;;;;;;;4.20;3.00;;;;;;;13.26;65.35;95542.59;4954175;28;20833;-72
2021/04/29 11:32:19;;;;;;;9.30;3.60;;;;;;;13.34;65.62;95532.28;4943233;28;20461;-74
2021/04/29 11:34:48;;;;;;;5.90;3.10;;;;;;;13.45;65.52;95546.06;4945814;28;20834;-72